sensor_id;sensor_type;location;lat;lon;timestamp;pressure;altitude;pressure_sealevel;temperature;humidity
71970;BME280;59838;52.152;5.436;2024-03-17T00:01:14;102440.34;;;2.95;100.00
71970;BME280;59838;52.152;5.436;2024-03-17T00:03:39;102429.97;;;2.96;100.00
71970;BME280;59838;52.152;5.436;2024-03-17T00:06:05;102425.13;;;2.91;100.00
71970;BME280;59838;52.152;5.436;2024-03-17T00:08:30;102425.13;;;2.91;100.00
71970;BME280;59838;52.152;5.436;2024-03-17T00:10:56;102417.41;;;2.91;100.00
71970;BME280;59838;52.152;5.436;2024-03-17T00:13:23;102418.97;;;2.94;100.00
71970;BME280;59838;52.152;5.436;2024-03-17T00:15:49;102417.97;;;2.97;100.00
71970;BME280;59838;52.152;5.436;2024-03-17T00:18:15;102417.69;;;3.01;100.00
71970;BME280;59838;52.152;5.436;2024-03-17T00:20:40;102412.44;;;3.03;100.00
71970;BME280;59838;52.152;5.436;2024-03-17T00:23:06;102414.91;;;3.04;100.00
71970;BME280;59838;52.152;5.436;2024-03-17T00:25:33;102408.88;;;3.05;100.00
71970;BME280;59838;52.152;5.436;2024-03-17T00:28:02;102406.31;;;3.05;100.00
71970;BME280;59838;52.152;5.436;2024-03-17T00:30:28;102411.44;;;3.05;100.00
71970;BME280;59838;52.152;5.436;2024-03-17T00:32:53;102414.00;;;3.05;100.00
71970;BME280;59838;52.152;5.436;2024-03-17T00:35:19;102404.66;;;3.04;100.00
71970;BME280;59838;52.152;5.436;2024-03-17T00:37:48;102397.13;;;3.01;100.00
71970;BME280;59838;52.152;5.436;2024-03-17T00:40:15;102404.13;;;2.99;100.00
71970;BME280;59838;52.152;5.436;2024-03-17T00:42:42;102387.06;;;2.98;100.00
71970;BME280;59838;52.152;5.436;2024-03-17T00:45:08;102392.00;;;3.01;100.00
71970;BME280;59838;52.152;5.436;2024-03-17T00:47:35;102395.50;;;3.00;100.00
71970;BME280;59838;52.152;5.436;2024-03-17T00:50:01;102399.69;;;3.01;100.00
71970;BME280;59838;52.152;5.436;2024-03-17T00:52:27;102393.75;;;3.01;100.00
71970;BME280;59838;52.152;5.436;2024-03-17T00:54:52;102390.19;;;3.03;100.00
71970;BME280;59838;52.152;5.436;2024-03-17T00:57:19;102394.38;;;3.04;100.00
71970;BME280;59838;52.152;5.436;2024-03-17T00:59:44;102384.78;;;3.08;100.00
71970;BME280;59838;52.152;5.436;2024-03-17T01:02:11;102389.72;;;3.11;100.00
71970;BME280;59838;52.152;5.436;2024-03-17T01:04:39;102384.38;;;3.14;100.00
71970;BME280;59838;52.152;5.436;2024-03-17T01:07:05;102391.97;;;3.16;100.00
71970;BME280;59838;52.152;5.436;2024-03-17T01:09:30;102386.75;;;3.17;100.00
71970;BME280;59838;52.152;5.436;2024-03-17T01:11:56;102385.75;;;3.20;100.00
71970;BME280;59838;52.152;5.436;2024-03-17T01:14:21;102388.22;;;3.21;100.00
71970;BME280;59838;52.152;5.436;2024-03-17T01:16:47;102382.13;;;3.22;100.00
71970;BME280;59838;52.152;5.436;2024-03-17T01:19:12;102379.47;;;3.24;100.00
71970;BME280;59838;52.152;5.436;2024-03-17T01:21:38;102376.00;;;3.25;100.00
71970;BME280;59838;52.152;5.436;2024-03-17T01:24:04;102372.44;;;3.27;100.00
71970;BME280;59838;52.152;5.436;2024-03-17T01:26:29;102376.53;;;3.30;100.00
71970;BME280;59838;52.152;5.436;2024-03-17T01:28:55;102375.63;;;3.31;100.00
71970;BME280;59838;52.152;5.436;2024-03-17T01:31:20;102368.81;;;3.30;100.00
71970;BME280;59838;52.152;5.436;2024-03-17T01:33:46;102367.00;;;3.32;100.00
71970;BME280;59838;52.152;5.436;2024-03-17T01:36:12;102363.50;;;3.33;100.00
71970;BME280;59838;52.152;5.436;2024-03-17T01:38:38;102360.00;;;3.34;100.00
71970;BME280;59838;52.152;5.436;2024-03-17T01:41:03;102359.91;;;3.36;100.00
71970;BME280;59838;52.152;5.436;2024-03-17T01:43:30;102358.97;;;3.37;100.00
71970;BME280;59838;52.152;5.436;2024-03-17T01:45:56;102345.22;;;3.38;100.00
71970;BME280;59838;52.152;5.436;2024-03-17T01:48:23;102350.25;;;3.39;100.00
71970;BME280;59838;52.152;5.436;2024-03-17T01:50:52;102331.38;;;3.40;100.00
71970;BME280;59838;52.152;5.436;2024-03-17T01:53:19;102327.84;;;3.41;100.00
71970;BME280;59838;52.152;5.436;2024-03-17T01:55:47;102332.91;;;3.43;100.00
71970;BME280;59838;52.152;5.436;2024-03-17T01:58:13;102337.13;;;3.44;100.00
71970;BME280;59838;52.152;5.436;2024-03-17T02:00:39;102343.91;;;3.45;100.00
71970;BME280;59838;52.152;5.436;2024-03-17T02:03:06;102341.13;;;3.48;100.00
71970;BME280;59838;52.152;5.436;2024-03-17T02:05:32;102324.00;;;3.48;100.00
71970;BME280;59838;52.152;5.436;2024-03-17T02:07:59;102336.66;;;3.52;100.00
71970;BME280;59838;52.152;5.436;2024-03-17T02:10:25;102328.84;;;3.53;100.00
71970;BME280;59838;52.152;5.436;2024-03-17T02:12:51;102331.19;;;3.56;100.00
71970;BME280;59838;52.152;5.436;2024-03-17T02:15:17;102329.34;;;3.58;100.00
71970;BME280;59838;52.152;5.436;2024-03-17T02:17:43;102327.41;;;3.62;100.00
71970;BME280;59838;52.152;5.436;2024-03-17T02:20:09;102324.63;;;3.65;100.00
71970;BME280;59838;52.152;5.436;2024-03-17T02:22:39;102324.44;;;3.68;100.00
71970;BME280;59838;52.152;5.436;2024-03-17T02:25:05;102320.00;;;3.70;100.00
71970;BME280;59838;52.152;5.436;2024-03-17T02:27:36;102321.56;;;3.73;100.00
71970;BME280;59838;52.152;5.436;2024-03-17T02:30:03;102322.19;;;3.76;100.00
71970;BME280;59838;52.152;5.436;2024-03-17T02:32:32;102327.03;;;3.81;100.00
71970;BME280;59838;52.152;5.436;2024-03-17T02:34:59;102314.06;;;3.82;100.00
71970;BME280;59838;52.152;5.436;2024-03-17T02:37:25;102308.72;;;3.86;100.00
71970;BME280;59838;52.152;5.436;2024-03-17T02:39:50;102306.78;;;3.89;100.00
71970;BME280;59838;52.152;5.436;2024-03-17T02:42:16;102309.16;;;3.92;100.00
71970;BME280;59838;52.152;5.436;2024-03-17T02:44:41;102306.38;;;3.95;100.00
71970;BME280;59838;52.152;5.436;2024-03-17T02:47:07;102301.13;;;3.97;100.00
71970;BME280;59838;52.152;5.436;2024-03-17T02:49:34;102293.09;;;4.01;100.00
71970;BME280;59838;52.152;5.436;2024-03-17T02:52:06;102297.22;;;4.04;100.00
71970;BME280;59838;52.152;5.436;2024-03-17T02:54:32;102302.97;;;4.08;100.00
71970;BME280;59838;52.152;5.436;2024-03-17T02:56:58;102301.94;;;4.10;100.00
71970;BME280;59838;52.152;5.436;2024-03-17T02:59:24;102301.75;;;4.13;100.00
71970;BME280;59838;52.152;5.436;2024-03-17T03:01:52;102294.72;;;4.15;100.00
71970;BME280;59838;52.152;5.436;2024-03-17T03:04:17;102299.56;;;4.20;100.00
71970;BME280;59838;52.152;5.436;2024-03-17T03:06:43;102297.72;;;4.22;100.00
71970;BME280;59838;52.152;5.436;2024-03-17T03:09:09;102296.59;;;4.26;100.00
71970;BME280;59838;52.152;5.436;2024-03-17T03:11:39;102294.63;;;4.30;100.00
71970;BME280;59838;52.152;5.436;2024-03-17T03:14:05;102299.66;;;4.31;100.00
71970;BME280;59838;52.152;5.436;2024-03-17T03:16:30;102296.03;;;4.34;100.00
71970;BME280;59838;52.152;5.436;2024-03-17T03:18:56;102289.06;;;4.36;100.00
71970;BME280;59838;52.152;5.436;2024-03-17T03:21:21;102291.53;;;4.37;100.00
71970;BME280;59838;52.152;5.436;2024-03-17T03:23:47;102284.50;;;4.39;100.00
71970;BME280;59838;52.152;5.436;2024-03-17T03:26:13;102280.88;;;4.42;100.00
71970;BME280;59838;52.152;5.436;2024-03-17T03:28:39;102285.81;;;4.45;100.00
71970;BME280;59838;52.152;5.436;2024-03-17T03:31:04;102291.72;;;4.47;100.00
71970;BME280;59838;52.152;5.436;2024-03-17T03:33:30;102288.19;;;4.48;100.00
71970;BME280;59838;52.152;5.436;2024-03-17T03:35:56;102288.09;;;4.50;100.00
71970;BME280;59838;52.152;5.436;2024-03-17T03:38:22;102293.84;;;4.53;100.00
71970;BME280;59838;52.152;5.436;2024-03-17T03:40:48;102295.28;;;4.57;100.00
71970;BME280;59838;52.152;5.436;2024-03-17T03:43:14;102283.13;;;4.60;100.00
71970;BME280;59838;52.152;5.436;2024-03-17T03:45:40;102276.00;;;4.63;100.00
71970;BME280;59838;52.152;5.436;2024-03-17T03:48:07;102281.78;;;4.67;100.00
71970;BME280;59838;52.152;5.436;2024-03-17T03:50:37;102276.41;;;4.70;100.00
71970;BME280;59838;52.152;5.436;2024-03-17T03:53:04;102271.97;;;4.72;100.00
71970;BME280;59838;52.152;5.436;2024-03-17T03:55:30;102263.19;;;4.74;100.00
71970;BME280;59838;52.152;5.436;2024-03-17T03:57:56;102262.88;;;4.79;100.00
71970;BME280;59838;52.152;5.436;2024-03-17T04:00:22;102255.78;;;4.83;100.00
71970;BME280;59838;52.152;5.436;2024-03-17T04:02:50;102252.13;;;4.85;100.00
71970;BME280;59838;52.152;5.436;2024-03-17T04:05:17;102252.84;;;4.87;100.00
71970;BME280;59838;52.152;5.436;2024-03-17T04:07:43;102244.91;;;4.90;100.00
71970;BME280;59838;52.152;5.436;2024-03-17T04:10:12;102243.97;;;4.91;100.00
71970;BME280;59838;52.152;5.436;2024-03-17T04:12:37;102235.34;;;4.92;100.00
71970;BME280;59838;52.152;5.436;2024-03-17T04:15:03;102224.91;;;4.94;100.00
71970;BME280;59838;52.152;5.436;2024-03-17T04:17:32;102224.78;;;4.95;100.00
71970;BME280;59838;52.152;5.436;2024-03-17T04:19:58;102229.81;;;4.97;100.00
71970;BME280;59838;52.152;5.436;2024-03-17T04:22:24;102226.44;;;4.97;100.00
71970;BME280;59838;52.152;5.436;2024-03-17T04:24:51;102227.13;;;4.99;100.00
71970;BME280;59838;52.152;5.436;2024-03-17T04:27:25;102227.25;;;4.97;100.00
71970;BME280;59838;52.152;5.436;2024-03-17T04:29:52;102229.00;;;4.97;100.00
71970;BME280;59838;52.152;5.436;2024-03-17T04:32:18;102226.53;;;4.95;100.00
71970;BME280;59838;52.152;5.436;2024-03-17T04:34:44;102217.19;;;4.94;100.00
71970;BME280;59838;52.152;5.436;2024-03-17T04:37:10;102213.66;;;4.95;100.00
71970;BME280;59838;52.152;5.436;2024-03-17T04:39:42;102205.94;;;4.95;100.00
71970;BME280;59838;52.152;5.436;2024-03-17T04:42:12;102212.84;;;4.94;100.00
71970;BME280;59838;52.152;5.436;2024-03-17T04:44:40;102208.63;;;4.93;100.00
71970;BME280;59838;52.152;5.436;2024-03-17T04:47:06;102215.66;;;4.91;100.00
71970;BME280;59838;52.152;5.436;2024-03-17T04:49:35;102214.94;;;4.89;100.00
71970;BME280;59838;52.152;5.436;2024-03-17T04:52:00;102206.38;;;4.89;100.00
71970;BME280;59838;52.152;5.436;2024-03-17T04:54:26;102201.22;;;4.89;100.00
71970;BME280;59838;52.152;5.436;2024-03-17T04:56:51;102210.59;;;4.90;100.00
71970;BME280;59838;52.152;5.436;2024-03-17T04:59:17;102209.69;;;4.91;100.00
71970;BME280;59838;52.152;5.436;2024-03-17T05:01:43;102222.44;;;4.92;100.00
71970;BME280;59838;52.152;5.436;2024-03-17T05:04:08;102215.66;;;4.91;100.00
71970;BME280;59838;52.152;5.436;2024-03-17T05:06:34;102216.34;;;4.93;100.00
71970;BME280;59838;52.152;5.436;2024-03-17T05:08:59;102214.63;;;4.94;100.00
71970;BME280;59838;52.152;5.436;2024-03-17T05:11:25;102216.13;;;4.97;100.00
71970;BME280;59838;52.152;5.436;2024-03-17T05:13:50;102224.56;;;4.99;100.00
71970;BME280;59838;52.152;5.436;2024-03-17T05:16:16;102211.56;;;5.00;100.00
71970;BME280;59838;52.152;5.436;2024-03-17T05:18:41;102210.53;;;5.03;100.00
71970;BME280;59838;52.152;5.436;2024-03-17T05:21:08;102203.50;;;5.05;100.00
71970;BME280;59838;52.152;5.436;2024-03-17T05:23:36;102208.56;;;5.06;100.00
71970;BME280;59838;52.152;5.436;2024-03-17T05:26:02;102209.38;;;5.07;100.00
71970;BME280;59838;52.152;5.436;2024-03-17T05:28:30;102208.44;;;5.08;100.00
71970;BME280;59838;52.152;5.436;2024-03-17T05:30:55;102206.69;;;5.08;100.00
71970;BME280;59838;52.152;5.436;2024-03-17T05:33:23;102213.47;;;5.09;100.00
71970;BME280;59838;52.152;5.436;2024-03-17T05:38:15;102210.81;;;5.11;100.00
71970;BME280;59838;52.152;5.436;2024-03-17T05:40:41;102207.19;;;5.13;100.00
71970;BME280;59838;52.152;5.436;2024-03-17T05:43:07;102202.72;;;5.16;100.00
71970;BME280;59838;52.152;5.436;2024-03-17T05:45:32;102203.53;;;5.16;100.00
71970;BME280;59838;52.152;5.436;2024-03-17T05:47:58;102203.31;;;5.19;100.00
71970;BME280;59838;52.152;5.436;2024-03-17T05:50:23;102201.44;;;5.21;100.00
71970;BME280;59838;52.152;5.436;2024-03-17T05:52:49;102202.28;;;5.22;100.00
71970;BME280;59838;52.152;5.436;2024-03-17T05:55:15;102204.66;;;5.25;100.00
71970;BME280;59838;52.152;5.436;2024-03-17T05:57:41;102199.38;;;5.26;100.00
71970;BME280;59838;52.152;5.436;2024-03-17T06:00:08;102204.38;;;5.28;100.00
71970;BME280;59838;52.152;5.436;2024-03-17T06:02:34;102204.38;;;5.28;100.00
71970;BME280;59838;52.152;5.436;2024-03-17T06:04:59;102211.31;;;5.27;100.00
71970;BME280;59838;52.152;5.436;2024-03-17T06:07:29;102212.97;;;5.28;100.00
71970;BME280;59838;52.152;5.436;2024-03-17T06:09:56;102211.19;;;5.29;100.00
71970;BME280;59838;52.152;5.436;2024-03-17T06:12:21;102217.78;;;5.33;100.00
71970;BME280;59838;52.152;5.436;2024-03-17T06:14:47;102209.09;;;5.34;100.00
71970;BME280;59838;52.152;5.436;2024-03-17T06:17:12;102212.25;;;5.38;100.00
71970;BME280;59838;52.152;5.436;2024-03-17T06:19:38;102204.19;;;5.42;100.00
71970;BME280;59838;52.152;5.436;2024-03-17T06:22:03;102205.72;;;5.45;100.00
71970;BME280;59838;52.152;5.436;2024-03-17T06:24:30;102212.16;;;5.50;100.00
71970;BME280;59838;52.152;5.436;2024-03-17T06:26:56;102203.38;;;5.53;100.00
71970;BME280;59838;52.152;5.436;2024-03-17T06:29:21;102190.97;;;5.58;100.00
71970;BME280;59838;52.152;5.436;2024-03-17T06:31:47;102192.28;;;5.64;100.00
71970;BME280;59838;52.152;5.436;2024-03-17T06:34:12;102198.72;;;5.70;100.00
71970;BME280;59838;52.152;5.436;2024-03-17T06:36:40;102200.72;;;5.77;100.00
71970;BME280;59838;52.152;5.436;2024-03-17T06:39:05;102199.19;;;5.86;100.00
71970;BME280;59838;52.152;5.436;2024-03-17T06:41:31;102197.59;;;5.96;100.00
71970;BME280;59838;52.152;5.436;2024-03-17T06:43:56;102194.38;;;6.04;100.00
71970;BME280;59838;52.152;5.436;2024-03-17T06:46:23;102194.75;;;6.11;100.00
71970;BME280;59838;52.152;5.436;2024-03-17T06:48:48;102183.00;;;6.18;100.00
71970;BME280;59838;52.152;5.436;2024-03-17T06:51:14;102187.44;;;6.27;100.00
71970;BME280;59838;52.152;5.436;2024-03-17T06:53:39;102197.16;;;6.35;100.00
71970;BME280;59838;52.152;5.436;2024-03-17T06:56:05;102199.97;;;6.43;100.00
71970;BME280;59838;52.152;5.436;2024-03-17T06:58:31;102198.53;;;6.50;100.00
71970;BME280;59838;52.152;5.436;2024-03-17T07:01:00;102202.00;;;6.61;100.00
71970;BME280;59838;52.152;5.436;2024-03-17T07:03:28;102202.09;;;6.70;100.00
71970;BME280;59838;52.152;5.436;2024-03-17T07:06:01;102197.41;;;6.75;100.00
71970;BME280;59838;52.152;5.436;2024-03-17T07:08:31;102201.25;;;6.81;100.00
71970;BME280;59838;52.152;5.436;2024-03-17T07:11:04;102191.59;;;6.83;100.00
71970;BME280;59838;52.152;5.436;2024-03-17T07:13:37;102197.19;;;6.88;100.00
71970;BME280;59838;52.152;5.436;2024-03-17T07:16:05;102197.44;;;6.97;100.00
71970;BME280;59838;52.152;5.436;2024-03-17T07:18:34;102198.69;;;7.02;100.00
71970;BME280;59838;52.152;5.436;2024-03-17T07:21:01;102198.19;;;7.08;100.00
71970;BME280;59838;52.152;5.436;2024-03-17T07:23:28;102208.97;;;7.13;100.00
71970;BME280;59838;52.152;5.436;2024-03-17T07:25:54;102205.88;;;7.20;100.00
71970;BME280;59838;52.152;5.436;2024-03-17T07:28:19;102201.69;;;7.28;100.00
71970;BME280;59838;52.152;5.436;2024-03-17T07:30:49;102204.09;;;7.41;100.00
71970;BME280;59838;52.152;5.436;2024-03-17T07:33:15;102209.22;;;7.62;100.00
71970;BME280;59838;52.152;5.436;2024-03-17T07:35:52;102206.97;;;7.79;100.00
71970;BME280;59838;52.152;5.436;2024-03-17T07:38:18;102202.69;;;7.89;100.00
71970;BME280;59838;52.152;5.436;2024-03-17T07:41:02;102195.22;;;7.96;100.00
71970;BME280;59838;52.152;5.436;2024-03-17T07:43:28;102190.06;;;8.05;100.00
71970;BME280;59838;52.152;5.436;2024-03-17T07:46:01;102196.22;;;8.14;100.00
71970;BME280;59838;52.152;5.436;2024-03-17T07:48:27;102195.41;;;8.23;100.00
71970;BME280;59838;52.152;5.436;2024-03-17T07:50:55;102194.06;;;8.39;100.00
71970;BME280;59838;52.152;5.436;2024-03-17T07:53:20;102184.28;;;8.42;100.00
71970;BME280;59838;52.152;5.436;2024-03-17T07:55:46;102181.16;;;8.49;100.00
71970;BME280;59838;52.152;5.436;2024-03-17T07:58:11;102180.88;;;8.62;100.00
71970;BME280;59838;52.152;5.436;2024-03-17T08:00:37;102176.41;;;8.73;100.00
71970;BME280;59838;52.152;5.436;2024-03-17T08:03:03;102179.25;;;8.80;100.00
71970;BME280;59838;52.152;5.436;2024-03-17T08:05:29;102174.88;;;8.90;100.00
71970;BME280;59838;52.152;5.436;2024-03-17T08:07:55;102177.31;;;9.02;100.00
71970;BME280;59838;52.152;5.436;2024-03-17T08:10:20;102180.75;;;9.12;100.00
71970;BME280;59838;52.152;5.436;2024-03-17T08:12:47;102192.97;;;9.20;100.00
71970;BME280;59838;52.152;5.436;2024-03-17T08:15:12;102189.84;;;9.16;100.00
71970;BME280;59838;52.152;5.436;2024-03-17T08:17:39;102182.91;;;9.07;100.00
71970;BME280;59838;52.152;5.436;2024-03-17T08:20:05;102191.78;;;9.04;100.00
71970;BME280;59838;52.152;5.436;2024-03-17T08:22:31;102187.97;;;8.99;100.00
71970;BME280;59838;52.152;5.436;2024-03-17T08:24:56;102181.31;;;8.96;100.00
71970;BME280;59838;52.152;5.436;2024-03-17T08:27:22;102187.56;;;8.93;100.00
71970;BME280;59838;52.152;5.436;2024-03-17T08:29:48;102184.03;;;8.94;100.00
71970;BME280;59838;52.152;5.436;2024-03-17T08:32:14;102178.97;;;8.93;100.00
71970;BME280;59838;52.152;5.436;2024-03-17T08:34:40;102172.97;;;8.83;100.00
71970;BME280;59838;52.152;5.436;2024-03-17T08:37:05;102178.28;;;8.81;100.00
71970;BME280;59838;52.152;5.436;2024-03-17T08:39:31;102173.41;;;8.78;100.00
71970;BME280;59838;52.152;5.436;2024-03-17T08:41:56;102170.38;;;8.73;100.00
71970;BME280;59838;52.152;5.436;2024-03-17T08:44:22;102175.56;;;8.73;100.00
71970;BME280;59838;52.152;5.436;2024-03-17T08:46:47;102179.94;;;8.72;100.00
71970;BME280;59838;52.152;5.436;2024-03-17T08:49:13;102173.69;;;8.75;100.00
71970;BME280;59838;52.152;5.436;2024-03-17T08:51:38;102163.19;;;8.76;100.00
71970;BME280;59838;52.152;5.436;2024-03-17T08:54:04;102163.59;;;8.82;100.00
71970;BME280;59838;52.152;5.436;2024-03-17T08:56:29;102161.53;;;8.85;100.00
71970;BME280;59838;52.152;5.436;2024-03-17T08:58:55;102172.16;;;8.92;100.00
71970;BME280;59838;52.152;5.436;2024-03-17T09:01:20;102168.47;;;9.04;100.00
71970;BME280;59838;52.152;5.436;2024-03-17T09:03:46;102168.06;;;9.09;100.00
71970;BME280;59838;52.152;5.436;2024-03-17T09:06:15;102168.84;;;9.19;100.00
71970;BME280;59838;52.152;5.436;2024-03-17T09:08:42;102168.25;;;9.35;100.00
71970;BME280;59838;52.152;5.436;2024-03-17T09:11:14;102160.28;;;9.46;100.00
71970;BME280;59838;52.152;5.436;2024-03-17T09:13:40;102160.41;;;9.55;100.00
71970;BME280;59838;52.152;5.436;2024-03-17T09:16:05;102159.22;;;9.67;100.00
71970;BME280;59838;52.152;5.436;2024-03-17T09:18:32;102167.94;;;9.76;100.00
71970;BME280;59838;52.152;5.436;2024-03-17T09:21:06;102167.00;;;9.77;100.00
71970;BME280;59838;52.152;5.436;2024-03-17T09:23:33;102166.69;;;9.80;100.00
71970;BME280;59838;52.152;5.436;2024-03-17T09:28:29;102157.91;;;9.91;100.00
71970;BME280;59838;52.152;5.436;2024-03-17T09:30:56;102155.97;;;9.93;100.00
71970;BME280;59838;52.152;5.436;2024-03-17T09:33:23;102163.19;;;9.99;100.00
71970;BME280;59838;52.152;5.436;2024-03-17T09:38:21;102156.66;;;9.95;99.84
71970;BME280;59838;52.152;5.436;2024-03-17T09:40:47;102159.19;;;10.04;100.00
71970;BME280;59838;52.152;5.436;2024-03-17T09:43:15;102153.56;;;10.09;100.00
71970;BME280;59838;52.152;5.436;2024-03-17T09:45:40;102153.38;;;10.11;99.66
71970;BME280;59838;52.152;5.436;2024-03-17T09:48:06;102150.50;;;10.14;99.91
71970;BME280;59838;52.152;5.436;2024-03-17T09:50:33;102155.78;;;10.22;99.62
71970;BME280;59838;52.152;5.436;2024-03-17T09:52:59;102153.44;;;10.29;99.93
71970;BME280;59838;52.152;5.436;2024-03-17T09:55:25;102157.09;;;10.36;99.42
71970;BME280;59838;52.152;5.436;2024-03-17T09:57:51;102147.22;;;10.39;98.63
71970;BME280;59838;52.152;5.436;2024-03-17T10:00:16;102153.53;;;10.55;99.92
71970;BME280;59838;52.152;5.436;2024-03-17T10:05:24;102144.06;;;10.72;97.69
71970;BME280;59838;52.152;5.436;2024-03-17T10:07:51;102135.22;;;10.83;97.26
71970;BME280;59838;52.152;5.436;2024-03-17T10:10:18;102137.88;;;10.91;96.80
71970;BME280;59838;52.152;5.436;2024-03-17T10:12:49;102136.28;;;10.98;95.06
71970;BME280;59838;52.152;5.436;2024-03-17T10:15:15;102134.38;;;11.00;96.56
71970;BME280;59838;52.152;5.436;2024-03-17T10:17:40;102137.97;;;11.07;95.14
71970;BME280;59838;52.152;5.436;2024-03-17T10:20:14;102134.59;;;11.15;95.89
71970;BME280;59838;52.152;5.436;2024-03-17T10:23:04;102132.84;;;11.24;95.44
71970;BME280;59838;52.152;5.436;2024-03-17T10:25:32;102135.25;;;11.17;93.61
71970;BME280;59838;52.152;5.436;2024-03-17T10:27:59;102127.00;;;11.22;93.74
71970;BME280;59838;52.152;5.436;2024-03-17T10:30:25;102128.22;;;11.36;94.66
71970;BME280;59838;52.152;5.436;2024-03-17T10:32:57;102121.72;;;11.40;93.47
71970;BME280;59838;52.152;5.436;2024-03-17T10:37:54;102116.06;;;11.52;92.44
71970;BME280;59838;52.152;5.436;2024-03-17T10:40:20;102111.25;;;11.74;94.02
71970;BME280;59838;52.152;5.436;2024-03-17T10:42:45;102105.31;;;12.06;95.05
71970;BME280;59838;52.152;5.436;2024-03-17T10:45:13;102114.16;;;12.22;91.08
71970;BME280;59838;52.152;5.436;2024-03-17T10:47:43;102110.41;;;12.33;89.03
71970;BME280;59838;52.152;5.436;2024-03-17T10:50:17;102107.13;;;12.47;88.81
71970;BME280;59838;52.152;5.436;2024-03-17T10:52:45;102105.34;;;12.56;86.88
71970;BME280;59838;52.152;5.436;2024-03-17T10:55:24;102091.50;;;12.72;88.02
71970;BME280;59838;52.152;5.436;2024-03-17T10:57:54;102097.97;;;12.84;89.31
71970;BME280;59838;52.152;5.436;2024-03-17T11:00:24;102097.94;;;12.92;86.02
71970;BME280;59838;52.152;5.436;2024-03-17T11:02:52;102094.19;;;13.03;87.28
71970;BME280;59838;52.152;5.436;2024-03-17T11:05:22;102092.94;;;13.30;86.79
71970;BME280;59838;52.152;5.436;2024-03-17T11:07:50;102091.88;;;13.56;86.98
71970;BME280;59838;52.152;5.436;2024-03-17T11:12:47;102084.47;;;13.91;86.65
71970;BME280;59838;52.152;5.436;2024-03-17T11:17:45;102083.00;;;13.65;80.28
71970;BME280;59838;52.152;5.436;2024-03-17T11:20:22;102084.25;;;13.78;83.30
71970;BME280;59838;52.152;5.436;2024-03-17T11:22:58;102081.69;;;13.69;81.52
71970;BME280;59838;52.152;5.436;2024-03-17T11:27:56;102081.97;;;13.75;81.36
71970;BME280;59838;52.152;5.436;2024-03-17T11:39:09;102081.53;;;13.40;80.17
71970;BME280;59838;52.152;5.436;2024-03-17T11:41:49;102072.09;;;13.22;79.91
71970;BME280;59838;52.152;5.436;2024-03-17T11:46:51;102066.97;;;13.06;80.97
71970;BME280;59838;52.152;5.436;2024-03-17T11:49:31;102072.38;;;12.96;81.30
71970;BME280;59838;52.152;5.436;2024-03-17T11:52:02;102072.81;;;13.08;83.45
71970;BME280;59838;52.152;5.436;2024-03-17T11:54:36;102073.44;;;13.10;83.15
71970;BME280;59838;52.152;5.436;2024-03-17T11:57:03;102079.34;;;13.04;83.42
71970;BME280;59838;52.152;5.436;2024-03-17T11:59:29;102072.69;;;12.93;82.68
71970;BME280;59838;52.152;5.436;2024-03-17T12:01:55;102078.75;;;12.85;83.79
71970;BME280;59838;52.152;5.436;2024-03-17T12:04:23;102076.63;;;12.80;83.97
71970;BME280;59838;52.152;5.436;2024-03-17T12:06:56;102076.78;;;12.79;83.75
71970;BME280;59838;52.152;5.436;2024-03-17T12:09:24;102065.72;;;12.77;84.98
71970;BME280;59838;52.152;5.436;2024-03-17T12:11:57;102076.97;;;12.69;85.30
71970;BME280;59838;52.152;5.436;2024-03-17T12:14:23;102068.22;;;12.62;86.27
71970;BME280;59838;52.152;5.436;2024-03-17T12:16:52;102070.97;;;12.60;87.33
71970;BME280;59838;52.152;5.436;2024-03-17T12:19:18;102067.88;;;12.65;87.36
71970;BME280;59838;52.152;5.436;2024-03-17T12:21:45;102059.91;;;12.67;87.23
71970;BME280;59838;52.152;5.436;2024-03-17T12:24:19;102054.81;;;12.73;87.31
71970;BME280;59838;52.152;5.436;2024-03-17T12:26:46;102053.19;;;12.72;87.29
71970;BME280;59838;52.152;5.436;2024-03-17T12:29:32;102056.44;;;12.74;85.94
71970;BME280;59838;52.152;5.436;2024-03-17T12:32:07;102046.50;;;12.78;86.24
71970;BME280;59838;52.152;5.436;2024-03-17T12:34:37;102048.38;;;12.92;87.40
71970;BME280;59838;52.152;5.436;2024-03-17T12:37:03;102042.00;;;13.03;87.44
71970;BME280;59838;52.152;5.436;2024-03-17T12:39:30;102039.72;;;13.00;86.36
71970;BME280;59838;52.152;5.436;2024-03-17T12:42:09;102031.56;;;13.03;86.06
71970;BME280;59838;52.152;5.436;2024-03-17T12:44:37;102029.16;;;12.93;84.60
71970;BME280;59838;52.152;5.436;2024-03-17T12:47:05;102031.16;;;12.83;85.24
71970;BME280;59838;52.152;5.436;2024-03-17T12:49:33;102026.63;;;12.69;84.10
71970;BME280;59838;52.152;5.436;2024-03-17T12:52:02;102022.09;;;12.62;84.80
71970;BME280;59838;52.152;5.436;2024-03-17T12:54:28;102018.50;;;12.64;85.78
71970;BME280;59838;52.152;5.436;2024-03-17T12:57:05;102013.28;;;12.64;85.71
71970;BME280;59838;52.152;5.436;2024-03-17T12:59:50;102013.75;;;12.67;85.15
71970;BME280;59838;52.152;5.436;2024-03-17T13:02:43;102018.00;;;12.60;85.58
71970;BME280;59838;52.152;5.436;2024-03-17T13:05:19;102005.13;;;12.75;87.56
71970;BME280;59838;52.152;5.436;2024-03-17T13:07:46;102003.78;;;12.79;86.32
71970;BME280;59838;52.152;5.436;2024-03-17T13:10:16;101997.28;;;12.75;86.95
71970;BME280;59838;52.152;5.436;2024-03-17T13:12:43;102007.69;;;12.83;87.25
71970;BME280;59838;52.152;5.436;2024-03-17T13:15:16;101995.63;;;12.82;87.37
71970;BME280;59838;52.152;5.436;2024-03-17T13:17:44;102000.50;;;12.85;86.04
71970;BME280;59838;52.152;5.436;2024-03-17T13:20:16;101988.31;;;12.77;86.29
71970;BME280;59838;52.152;5.436;2024-03-17T13:22:42;101995.03;;;12.72;85.93